createdAt,value
2023-04-06T00:01:46.927Z,85.00
2023-04-06T00:06:50.704Z,84.55
2023-04-06T00:11:54.084Z,84.81
2023-04-06T00:16:59.313Z,84.87
2023-04-06T00:22:03.487Z,85.20
2023-04-06T00:27:07.300Z,85.59
2023-04-06T00:32:12.358Z,85.59
2023-04-06T00:37:16.129Z,85.73
2023-04-06T00:42:26.221Z,86.00
2023-04-06T00:47:31.456Z,85.27
2023-04-06T00:52:36.052Z,83.86
2023-04-06T00:57:40.152Z,83.02
2023-04-06T01:02:46.212Z,82.53
2023-04-06T01:07:53.236Z,82.86
2023-04-06T01:13:00.798Z,82.81
2023-04-06T01:18:29.831Z,83.08
2023-04-06T01:23:55.265Z,83.05
2023-04-06T01:29:06.779Z,83.21
2023-04-06T01:34:10.629Z,83.18
2023-04-06T01:39:15.687Z,82.40
2023-04-06T01:44:21.240Z,82.39
2023-04-06T01:49:31.673Z,82.44
2023-04-06T01:54:37.044Z,82.37
2023-04-06T01:59:48.085Z,82.66
2023-04-06T02:05:08.671Z,82.49
2023-04-06T02:10:16.598Z,82.43
2023-04-06T02:15:21.551Z,82.62
2023-04-06T02:20:25.152Z,82.77
2023-04-06T02:25:30.223Z,82.65
2023-04-06T02:30:33.939Z,81.92
2023-04-06T02:35:37.873Z,82.07
2023-04-06T02:40:43.233Z,82.14
2023-04-06T02:45:59.272Z,81.99
2023-04-06T02:51:02.734Z,82.34
2023-04-06T02:56:08.584Z,82.83
2023-04-06T03:01:22.355Z,82.53
2023-04-06T03:06:32.435Z,81.95
2023-04-06T03:11:45.575Z,81.89
2023-04-06T03:16:49.191Z,81.82
2023-04-06T03:21:56.854Z,82.39
2023-04-06T03:27:03.295Z,81.92
2023-04-06T03:32:08.074Z,81.13
2023-04-06T03:37:16.426Z,81.63
2023-04-06T03:42:27.813Z,81.53
2023-04-06T03:47:37.801Z,81.05
2023-04-06T03:52:44.394Z,80.79
2023-04-06T03:57:49.374Z,80.62
2023-04-06T04:02:53.405Z,80.81
2023-04-06T04:07:58.233Z,80.98
2023-04-06T04:13:05.422Z,81.35
2023-04-06T04:18:09.348Z,82.24
2023-04-06T04:23:12.957Z,82.87
2023-04-06T04:28:17.812Z,82.19
2023-04-06T04:33:22.688Z,81.97
2023-04-06T04:38:27.832Z,81.24
2023-04-06T04:43:35.403Z,81.96
2023-04-06T04:48:40.779Z,81.42
2023-04-06T04:53:45.405Z,81.43
2023-04-06T04:58:59.542Z,80.96
2023-04-06T05:04:06.976Z,81.00
2023-04-06T05:09:12.029Z,81.51
2023-04-06T05:14:21.179Z,81.67
2023-04-06T05:19:24.796Z,81.46
2023-04-06T05:24:28.631Z,80.97
2023-04-06T05:29:34.298Z,80.32
2023-04-06T05:34:39.546Z,80.25
2023-04-06T05:39:44.127Z,80.42
2023-04-06T05:44:49.545Z,80.36
2023-04-06T05:49:54.452Z,80.46
2023-04-06T05:55:10.636Z,80.41
2023-04-06T06:00:17.848Z,79.60
2023-04-06T06:05:31.348Z,79.31
2023-04-06T06:10:41.967Z,80.23
2023-04-06T06:15:50.140Z,80.36
2023-04-06T06:20:56.020Z,79.42
2023-04-06T06:26:00.037Z,79.07
2023-04-06T06:31:06.240Z,78.85
2023-04-06T06:36:10.247Z,78.33
2023-04-06T06:41:14.575Z,78.61
2023-04-06T06:46:19.783Z,78.63
2023-04-06T06:51:23.470Z,77.89
2023-04-06T06:56:27.812Z,78.53
2023-04-06T07:01:34.723Z,78.51
2023-04-06T07:06:39.289Z,77.50
2023-04-06T07:11:43.806Z,77.39
2023-04-06T07:16:49.978Z,77.67
2023-04-06T07:21:53.913Z,76.68
2023-04-06T07:26:58.042Z,77.01
2023-04-06T07:32:03.564Z,77.25
2023-04-06T07:37:08.963Z,76.43
2023-04-06T07:42:13.024Z,77.54
2023-04-06T07:47:18.447Z,76.43
2023-04-06T07:52:22.331Z,75.82
2023-04-06T07:57:27.165Z,75.32
2023-04-06T08:02:32.499Z,74.89
2023-04-06T08:07:36.691Z,74.97
2023-04-06T08:12:40.155Z,75.35
2023-04-06T08:17:45.033Z,75.52
2023-04-06T08:22:48.876Z,75.05
2023-04-06T08:27:53.703Z,74.81
2023-04-06T08:32:58.587Z,75.99
2023-04-06T08:38:03.459Z,76.33
2023-04-06T08:43:12.633Z,75.39
2023-04-06T08:48:18.747Z,74.66
2023-04-06T08:53:24.243Z,75.29
2023-04-06T08:58:37.819Z,73.78
2023-04-06T09:03:44.465Z,74.98
2023-04-06T09:08:47.965Z,74.78
2023-04-06T09:13:53.685Z,74.15
2023-04-06T09:19:06.662Z,74.64
2023-04-06T09:24:11.401Z,75.26
2023-04-06T09:29:25.482Z,74.07
2023-04-06T09:34:30.591Z,73.96
2023-04-06T09:39:34.311Z,74.49
2023-04-06T09:44:38.378Z,76.16
2023-04-06T09:49:44.160Z,75.07
2023-04-06T09:54:52.526Z,73.83
2023-04-06T10:00:10.728Z,72.23
2023-04-06T10:05:27.378Z,74.20
2023-04-06T10:10:31.504Z,73.62
2023-04-06T10:15:36.169Z,74.25
2023-04-06T10:20:45.891Z,73.42
2023-04-06T10:25:56.648Z,72.78
2023-04-06T10:31:01.724Z,75.19
2023-04-06T10:36:17.289Z,72.99
2023-04-06T10:41:21.727Z,74.60
2023-04-06T10:46:28.240Z,74.21
2023-04-06T10:51:34.008Z,73.85
2023-04-06T10:56:41.313Z,73.89
2023-04-06T11:01:47.262Z,72.97
2023-04-06T11:06:52.609Z,73.13
2023-04-06T11:11:57.190Z,72.85
2023-04-06T11:17:00.638Z,71.61
2023-04-06T11:22:10.635Z,71.68
2023-04-06T11:27:16.107Z,72.99
2023-04-06T11:32:24.616Z,71.71
2023-04-06T11:37:30.420Z,70.80
2023-04-06T11:42:37.234Z,71.70
2023-04-06T11:47:41.718Z,71.70
2023-04-06T11:52:47.530Z,70.50
2023-04-06T11:57:52.686Z,70.56
2023-04-06T12:02:56.200Z,70.43
2023-04-06T12:08:03.293Z,70.88
2023-04-06T12:13:07.670Z,72.78
2023-04-06T12:18:11.801Z,71.95
2023-04-06T12:23:16.683Z,70.86
2023-04-06T12:28:21.730Z,70.34
2023-04-06T12:33:25.764Z,70.33
2023-04-06T12:38:31.381Z,71.01
2023-04-06T12:43:34.942Z,71.01
2023-04-06T12:48:38.806Z,68.93
2023-04-06T12:53:43.835Z,69.96
2023-04-06T12:58:48.104Z,69.81
2023-04-06T13:03:52.498Z,67.89
2023-04-06T13:08:57.350Z,66.08
2023-04-06T13:14:01.075Z,67.88
2023-04-06T13:19:04.524Z,68.97
2023-04-06T13:24:09.600Z,69.15
2023-04-06T13:29:13.074Z,68.25
2023-04-06T13:34:17.099Z,69.05
2023-04-06T13:39:22.217Z,68.83
2023-04-06T13:44:25.862Z,68.00
2023-04-06T13:49:29.290Z,67.12
2023-04-06T13:54:34.349Z,66.98
2023-04-06T13:59:38.960Z,67.60
2023-04-06T14:04:42.385Z,68.87
2023-04-06T14:09:47.257Z,68.85
2023-04-06T14:14:51.029Z,67.63
2023-04-06T14:19:54.665Z,67.46
2023-04-06T14:24:59.936Z,65.88
2023-04-06T14:30:03.345Z,65.63
2023-04-06T14:35:08.245Z,63.76
2023-04-06T14:40:13.990Z,64.93
2023-04-06T14:45:18.300Z,64.83
2023-04-06T14:50:21.882Z,67.32
2023-04-06T14:55:27.070Z,69.38
2023-04-06T15:00:30.496Z,68.67
2023-04-06T15:05:36.137Z,67.24
2023-04-06T15:10:41.751Z,67.43
2023-04-06T15:15:45.515Z,68.24
2023-04-06T15:20:49.298Z,68.39
2023-04-06T15:25:54.262Z,68.41
2023-04-06T15:30:58.637Z,68.08
2023-04-06T15:36:08.892Z,69.26
2023-04-06T15:41:15.776Z,68.38
2023-04-06T15:46:19.404Z,69.84
2023-04-06T15:51:22.786Z,70.03
2023-04-06T15:56:27.636Z,70.14
2023-04-06T16:01:31.937Z,70.58
2023-04-06T16:06:35.533Z,69.78
2023-04-06T16:11:40.430Z,69.97
2023-04-06T16:16:44.044Z,70.22
2023-04-06T16:21:47.638Z,71.64
2023-04-06T16:26:52.465Z,72.28
2023-04-06T16:31:56.030Z,72.17
2023-04-06T16:36:59.894Z,72.44
2023-04-06T16:42:04.868Z,72.74
2023-04-06T16:47:08.626Z,73.73
2023-04-06T16:52:12.224Z,73.74
2023-04-06T16:57:18.161Z,73.65
2023-04-06T17:02:21.605Z,74.25
2023-04-06T17:07:26.586Z,74.91
2023-04-06T17:12:31.436Z,75.00
2023-04-06T17:17:34.942Z,75.00
2023-04-06T17:22:38.784Z,75.17
2023-04-06T17:27:43.989Z,75.17
2023-04-06T17:32:48.093Z,75.38
2023-04-06T17:37:51.988Z,75.50
2023-04-06T17:42:58.275Z,76.08
2023-04-06T17:48:01.731Z,76.82
2023-04-06T17:53:05.436Z,76.91
2023-04-06T17:58:10.227Z,77.15
2023-04-06T18:03:15.948Z,77.49
2023-04-06T18:08:19.490Z,77.79
2023-04-06T18:13:24.363Z,77.96
2023-04-06T18:18:29.774Z,78.97
2023-04-06T18:23:34.416Z,78.80
2023-04-06T18:28:39.236Z,79.22
2023-04-06T18:33:46.903Z,79.78
2023-04-06T18:38:51.517Z,80.21
2023-04-06T18:43:56.727Z,80.27
2023-04-06T18:49:00.266Z,81.02
2023-04-06T18:54:03.798Z,81.07
2023-04-06T18:59:09.163Z,81.98
2023-04-06T19:04:13.253Z,81.77
2023-04-06T19:09:16.849Z,82.11
2023-04-06T19:14:21.929Z,82.39
2023-04-06T19:19:25.360Z,82.56
2023-04-06T19:24:29.930Z,83.94
2023-04-06T19:29:35.023Z,84.27
2023-04-06T19:34:38.881Z,84.85
2023-04-06T19:39:44.133Z,85.16
2023-04-06T19:44:49.148Z,84.95
2023-04-06T19:49:52.646Z,84.53
2023-04-06T19:54:56.005Z,84.14
2023-04-06T20:00:01.315Z,83.88
2023-04-06T20:05:13.196Z,83.71
2023-04-06T20:10:16.754Z,84.26
2023-04-06T20:15:23.314Z,85.07
2023-04-06T20:20:26.894Z,85.15
2023-04-06T20:25:30.383Z,86.14
2023-04-06T20:30:35.528Z,85.48
2023-04-06T20:35:39.023Z,85.31
2023-04-06T20:40:45.644Z,84.82
2023-04-06T20:45:50.706Z,84.47
2023-04-06T20:50:54.430Z,84.23
2023-04-06T20:55:58.232Z,83.50
2023-04-06T21:01:03.049Z,83.98
2023-04-06T21:06:06.933Z,83.67
2023-04-06T21:11:10.925Z,84.49
2023-04-06T21:16:15.866Z,85.06
2023-04-06T21:21:19.315Z,85.58
2023-04-06T21:26:22.726Z,85.78
2023-04-06T21:31:27.876Z,85.61
2023-04-06T21:36:32.853Z,85.97
2023-04-06T21:41:36.648Z,85.96
2023-04-06T21:46:41.748Z,85.85
2023-04-06T21:51:45.234Z,85.25
2023-04-06T21:56:48.946Z,84.07
2023-04-06T22:01:56.683Z,82.23
2023-04-06T22:07:00.735Z,78.00
2023-04-06T22:12:04.147Z,75.77
2023-04-06T22:17:09.299Z,75.18
2023-04-06T22:22:13.086Z,73.42
2023-04-06T22:27:16.810Z,71.59
2023-04-06T22:32:21.597Z,69.72
2023-04-06T22:37:25.151Z,69.73
2023-04-06T22:42:28.670Z,71.05
2023-04-06T22:47:33.902Z,71.00
2023-04-06T22:52:37.972Z,70.68
2023-04-06T22:57:41.416Z,70.16
2023-04-06T23:02:46.515Z,69.71
2023-04-06T23:07:51.322Z,68.56
2023-04-06T23:12:54.720Z,68.03
2023-04-06T23:17:59.574Z,68.17
2023-04-06T23:23:02.950Z,68.43
2023-04-06T23:28:06.332Z,67.37
2023-04-06T23:33:11.479Z,67.96
2023-04-06T23:38:14.907Z,67.83
2023-04-06T23:43:18.404Z,67.07
2023-04-06T23:48:23.198Z,67.04
2023-04-06T23:53:26.803Z,67.05
2023-04-06T23:58:30.494Z,67.11
